الصفحة الرئيسية
METAR-TAF:

METAR-TAF

مطار :

سكوتسديل, أريزونا, الولايات المتحدة

دائرة عرض: 33-37-22N, خط طول: 111-54-38W, ارتفاع: 460 متر

مراقبة الطقس الحالي

تاريخ ووقت الإصدار 51 دقيقة قبل الساعة 20:53UTC
ريح 9 عقدة من الجنوب/الجنوب الشرقي, الاتجاه يتراوح بين الشرق/الجنوب الشرقي و الجنوب/الجنوب الغربي
درجة الحرارة 27°درجة مئوية
الرطوبة 18%
ضغط 1015 hPa
الرؤية: 16.1 كم
سماء صافية

METAR: KSDL 182053Z 15009KT 110V200 10SM CLR 27/01 A2998 RMK AO2 SLP136 T02670011 58021

زمن: 14:44 (21:44 UTC)

توقعات

تاريخ ووقت الإصدار 4ساعات و 8 دقيقة قبل الساعة 17:36UTC
التوقعات صالحة من18 الساعة 18 UTC إلى 19 الساعة 18 UTC
ريح 3 عقدةمن اتجاهات متغيرة
الرؤية: 10 كم
غيوم قليلة على ارتفاع 9000 قدم
مؤقت
من 18 الساعة 18 UTC إلى 18 الساعة 21 UTC
ريح 5 عقدة من الشرق
من 19 الساعة 0400 UTC
ريح 4 عقدة من الشمال الشرقي
الرؤية: 10 كم
سماء صافية

TAF: KSDL 181736Z 1818/1918 VRB03KT P6SM FEW090 TEMPO 1818/1821 10005KT FM190400 05004KT P6SM SKC

أرصاد الطقس والتوقعات من أكثر من 4000 مطار (تقارير الطقس للمطار METAR والتنبؤ بالطقس بالمطارTAF).

المحطات المتاحة هي النقط الصفراء والحمراء على الخريطة.

حرك المؤشر فوق النقطة لمعرفة اسم المحطة.

ثم انقر لمعرفة أرصاد وتوقعات الطقس.

لتغيير الخارطة: اضغط على الأزرار الخضراء مع رمز الصليب الأسود للتكبير. على الزر الأخضر مع شرطة للتصغير، أو على الأسهم الخضراء للخرائط المجاورة.


METAR-TAF: